Time;durP1;ratioP1;P1;durP2;ratioP2;P2;SDS_P1;SDS_P2;PMS_P1;PMS_P2;Temp;Humidity;BMP_temperature;BMP_pressure;BME280_temperature;BME280_humidity;BME280_pressure;Samples;Min_cycle;Max_cycle;Signal;HPM_P1;HPM_P2
2021/03/04 00:02:06;;;;;;;6.05;2.90;;;;;;;25.46;29.34;97288.53;4994800;28;20505;-33
2021/03/04 00:04:32;;;;;;;7.07;2.72;;;;;;;25.46;29.11;97283.28;5004417;28;20026;-34
2021/03/04 00:06:57;;;;;;;6.78;2.70;;;;;;;25.47;29.16;97284.97;5002157;28;20029;-33
2021/03/04 00:09:22;;;;;;;8.23;3.13;;;;;;;25.47;29.31;97284.13;4989974;28;20052;-34
2021/03/04 00:11:48;;;;;;;5.07;2.70;;;;;;;25.47;28.90;97282.34;4997569;28;20097;-32
2021/03/04 00:14:13;;;;;;;4.65;2.83;;;;;;;25.47;29.09;97271.84;5002370;28;20038;-32
2021/03/04 00:16:39;;;;;;;6.60;3.00;;;;;;;25.47;29.02;97263.97;4994347;28;20600;-31
2021/03/04 00:19:04;;;;;;;6.28;2.97;;;;;;;25.47;29.05;97261.34;4979764;28;20581;-37
2021/03/04 00:21:29;;;;;;;3.70;2.40;;;;;;;25.47;29.27;97257.91;5002704;28;20478;-33
2021/03/04 00:23:55;;;;;;;5.43;2.88;;;;;;;25.47;29.07;97253.47;5001708;28;20087;-30
2021/03/04 00:26:20;;;;;;;3.75;2.60;;;;;;;25.47;29.25;97247.41;4998004;28;20030;-30
2021/03/04 00:28:46;;;;;;;10.73;2.90;;;;;;;25.46;28.89;97251.78;4997197;28;20041;-32
2021/03/04 00:31:11;;;;;;;5.13;2.88;;;;;;;25.46;29.07;97257.03;4994946;28;20486;-30
2021/03/04 00:33:36;;;;;;;5.85;2.63;;;;;;;25.46;29.10;97257.03;4993896;28;20033;-32
2021/03/04 00:36:02;;;;;;;4.57;2.88;;;;;;;25.48;28.92;97259.59;4994141;28;20113;-32
2021/03/04 00:38:27;;;;;;;8.65;2.90;;;;;;;25.47;29.21;97252.66;4995847;28;20061;-32
2021/03/04 00:40:53;;;;;;;4.97;3.00;;;;;;;25.47;29.03;97253.47;5002658;28;20041;-32
2021/03/04 00:43:18;;;;;;;4.35;2.70;;;;;;;25.47;29.15;97248.25;4999102;28;20030;-31
2021/03/04 00:45:43;;;;;;;4.82;2.90;;;;;;;25.47;28.92;97247.41;4994219;28;20070;-32
2021/03/04 00:48:09;;;;;;;5.15;2.55;;;;;;;25.46;28.93;97249.16;5004388;28;20033;-33
2021/03/04 00:50:35;;;;;;;4.88;2.90;;;;;;;25.45;28.97;97243.06;5002401;28;20026;-32
2021/03/04 00:53:02;;;;;;;7.95;2.55;;;;;;;25.45;28.97;97236.97;5007822;28;20681;-32
2021/03/04 00:55:27;;;;;;;3.88;2.50;;;;;;;25.46;29.00;97230.78;5001640;28;20054;-33
2021/03/04 00:57:53;;;;;;;4.50;2.90;;;;;;;25.46;29.00;97230.78;4985073;28;20030;-32
2021/03/04 01:00:18;;;;;;;3.92;2.75;;;;;;;25.45;29.05;97240.44;5004546;28;20488;-35
2021/03/04 01:02:44;;;;;;;4.55;2.83;;;;;;;25.47;28.93;97236.91;5005782;28;20045;-33
2021/03/04 01:05:09;;;;;;;4.15;2.60;;;;;;;25.46;28.92;97236.03;5001047;28;20701;-31
2021/03/04 01:07:37;;;;;;;4.15;2.45;;;;;;;25.47;29.08;97236.91;5003192;28;20485;-32
2021/03/04 01:10:10;;;;;;;3.50;2.35;;;;;;;25.46;28.96;97230.78;4986660;28;20402;-32
2021/03/04 01:12:36;;;;;;;4.00;2.50;;;;;;;25.45;28.85;97231.72;5005798;28;20522;-34
2021/03/04 01:15:03;;;;;;;3.72;2.38;;;;;;;25.45;29.11;97231.72;4986026;28;20045;-33
2021/03/04 01:17:29;;;;;;;3.22;2.13;;;;;;;25.45;28.79;97231.72;4979302;28;20048;-33
2021/03/04 01:19:54;;;;;;;3.30;2.45;;;;;;;25.44;29.00;97225.63;5003063;28;20025;-33
2021/03/04 01:22:19;;;;;;;3.70;2.47;;;;;;;25.44;28.99;97223.00;4996353;28;20111;-37
2021/03/04 01:24:45;;;;;;;3.78;2.40;;;;;;;25.44;28.82;97222.16;4988493;28;20092;-32
2021/03/04 01:27:10;;;;;;;5.65;2.13;;;;;;;25.45;28.92;97215.97;5003286;28;20516;-32
2021/03/04 01:29:36;;;;;;;3.95;2.55;;;;;;;25.44;28.92;97206.41;5000136;28;20037;-32
2021/03/04 01:32:01;;;;;;;5.93;2.90;;;;;;;25.45;28.89;97208.09;5004453;28;20529;-34
2021/03/04 01:34:26;;;;;;;3.90;2.45;;;;;;;25.44;28.92;97203.78;5001687;28;20022;-33
2021/03/04 01:36:52;;;;;;;5.50;2.40;;;;;;;25.45;28.93;97210.72;4997199;28;20028;-32
2021/03/04 01:39:17;;;;;;;4.97;2.47;;;;;;;25.44;28.97;97206.41;5002120;28;20493;-32
2021/03/04 01:41:43;;;;;;;4.00;2.50;;;;;;;25.43;28.89;97199.44;4996687;28;20026;-34
2021/03/04 01:44:08;;;;;;;5.30;2.47;;;;;;;25.43;28.94;97194.19;4995740;28;20026;-32
2021/03/04 01:46:33;;;;;;;4.35;2.30;;;;;;;25.43;28.84;97188.94;4996193;28;20068;-31
2021/03/04 01:48:59;;;;;;;3.72;2.45;;;;;;;25.43;28.88;97191.56;5000423;28;20037;-33
2021/03/04 01:51:24;;;;;;;3.22;2.08;;;;;;;25.42;29.03;97182.88;4980894;28;20037;-33
2021/03/04 01:53:50;;;;;;;3.22;2.17;;;;;;;25.43;29.19;97184.56;4987864;28;20018;-32
2021/03/04 01:56:15;;;;;;;3.90;2.13;;;;;;;25.43;28.99;97178.44;4983609;28;20036;-32
2021/03/04 01:58:40;;;;;;;3.38;2.60;;;;;;;25.42;28.98;97176.75;4963444;28;20029;-34
2021/03/04 02:01:06;;;;;;;4.22;2.38;;;;;;;25.43;29.00;97181.06;4999354;28;20038;-31
2021/03/04 02:03:32;;;;;;;4.07;2.42;;;;;;;25.42;29.06;97175.00;5001786;28;20022;-33
2021/03/04 02:05:57;;;;;;;3.13;2.10;;;;;;;25.43;28.87;97173.19;5001811;28;20034;-32
2021/03/04 02:08:34;;;;;;;3.83;2.10;;;;;;;25.42;28.88;97168.88;5005821;28;20028;-34
2021/03/04 02:11:06;;;;;;;3.65;2.10;;;;;;;25.41;28.96;97162.81;4981841;28;20030;-35
2021/03/04 02:13:42;;;;;;;3.40;2.38;;;;;;;25.41;28.88;97164.56;4983489;28;20109;-33
2021/03/04 02:16:11;;;;;;;2.70;2.10;;;;;;;25.41;29.07;97156.69;4981182;28;20533;-33
2021/03/04 02:18:39;;;;;;;3.13;2.25;;;;;;;25.42;28.96;97155.75;4995109;28;20041;-32
2021/03/04 02:21:32;;;;;;;5.43;2.30;;;;;;;25.41;29.03;97154.06;4985249;28;20502;-33
2021/03/04 02:24:05;;;;;;;4.07;2.20;;;;;;;25.41;29.04;97148.81;5000209;28;20367;-32
2021/03/04 02:26:36;;;;;;;3.00;2.20;;;;;;;25.40;28.85;97147.97;4999385;28;20030;-33
2021/03/04 02:29:02;;;;;;;2.92;2.40;;;;;;;25.41;28.96;97148.81;5001543;28;20060;-33
2021/03/04 02:31:29;;;;;;;3.75;2.22;;;;;;;25.40;28.79;97142.72;4962157;28;21382;-33
2021/03/04 02:33:54;;;;;;;3.47;2.00;;;;;;;25.41;28.89;97143.56;4977949;28;20037;-32
2021/03/04 02:36:19;;;;;;;4.30;2.33;;;;;;;25.40;28.91;97141.88;4984578;28;20013;-34
2021/03/04 02:38:45;;;;;;;4.57;2.20;;;;;;;25.39;28.99;97148.03;4968971;28;21671;-33
2021/03/04 02:41:11;;;;;;;3.15;2.30;;;;;;;25.39;28.82;97141.03;4986236;28;20030;-35
2021/03/04 02:43:36;;;;;;;2.70;2.25;;;;;;;25.39;29.13;97142.78;4983473;28;20030;-32
2021/03/04 02:46:01;;;;;;;3.42;2.10;;;;;;;25.39;28.80;97148.03;4980369;28;20058;-33
2021/03/04 02:48:27;;;;;;;3.97;2.42;;;;;;;25.39;29.07;97142.78;4999921;28;21049;-33
2021/03/04 02:50:52;;;;;;;3.90;2.28;;;;;;;25.39;28.98;97141.03;4968400;28;20032;-33
2021/03/04 02:53:18;;;;;;;3.47;2.40;;;;;;;25.39;29.14;97134.91;4962641;28;20068;-32
2021/03/04 02:55:43;;;;;;;3.30;2.25;;;;;;;25.39;29.04;97130.53;5003442;28;20047;-32
2021/03/04 02:58:09;;;;;;;2.75;2.10;;;;;;;25.39;28.88;97124.41;4983056;28;20041;-31
2021/03/04 03:00:34;;;;;;;3.15;2.00;;;;;;;25.38;28.88;97122.72;4981186;28;20030;-31
2021/03/04 03:03:03;;;;;;;4.07;2.20;;;;;;;25.39;28.86;97127.03;5004389;28;20041;-32
2021/03/04 03:05:30;;;;;;;4.50;2.40;;;;;;;25.38;28.98;97117.47;4966751;28;20367;-35
2021/03/04 03:07:55;;;;;;;4.70;2.05;;;;;;;25.38;28.82;97118.34;4984360;28;20038;-33
2021/03/04 03:10:21;;;;;;;2.92;2.10;;;;;;;25.38;29.00;97112.22;4987168;28;20037;-32
2021/03/04 03:12:47;;;;;;;2.67;1.80;;;;;;;25.37;28.84;97111.41;5001731;28;20034;-32
2021/03/04 03:15:14;;;;;;;2.53;2.17;;;;;;;25.38;29.08;97117.47;4981308;28;20061;-39
2021/03/04 03:17:40;;;;;;;3.42;2.10;;;;;;;25.37;29.09;97111.41;4998087;28;20041;-35
2021/03/04 03:20:07;;;;;;;2.67;2.00;;;;;;;25.38;28.90;97114.84;4998605;28;20668;-30
2021/03/04 03:22:33;;;;;;;2.53;2.00;;;;;;;25.37;28.93;97106.16;5004500;28;20080;-32
2021/03/04 03:24:58;;;;;;;3.88;1.88;;;;;;;25.38;28.81;97112.22;5002658;28;20034;-33
2021/03/04 03:27:24;;;;;;;3.22;2.20;;;;;;;25.38;28.86;97109.59;4988230;28;20065;-32
2021/03/04 03:29:50;;;;;;;2.63;1.67;;;;;;;25.38;28.76;97109.59;4996495;28;20057;-33
2021/03/04 03:32:15;;;;;;;2.78;1.80;;;;;;;25.36;28.91;97108.84;4988261;28;20649;-33
2021/03/04 03:34:40;;;;;;;2.45;1.80;;;;;;;25.38;28.98;97117.47;4981839;28;20029;-35
2021/03/04 03:37:06;;;;;;;4.63;1.95;;;;;;;25.37;28.72;97110.53;4983273;28;20030;-32
2021/03/04 03:39:31;;;;;;;5.93;2.17;;;;;;;25.36;28.91;97109.66;4964811;28;20025;-32
2021/03/04 03:41:57;;;;;;;2.97;2.08;;;;;;;25.37;28.87;97114.03;4975928;28;20033;-32
2021/03/04 03:44:22;;;;;;;3.72;2.00;;;;;;;25.37;29.07;97105.28;4977037;28;20045;-32
2021/03/04 03:46:48;;;;;;;2.45;1.90;;;;;;;25.37;29.08;97107.91;4983778;28;20030;-32
2021/03/04 03:49:15;;;;;;;3.05;2.10;;;;;;;25.36;28.93;97099.19;5002945;28;20445;-32
2021/03/04 03:51:40;;;;;;;3.42;2.10;;;;;;;25.36;29.01;97099.19;5000737;28;20057;-37
2021/03/04 03:54:06;;;;;;;2.47;1.90;;;;;;;25.36;28.83;97093.09;4998869;28;20032;-33
2021/03/04 03:56:32;;;;;;;2.35;1.83;;;;;;;25.35;29.05;97097.47;5000009;28;20050;-32
2021/03/04 03:58:58;;;;;;;4.22;1.83;;;;;;;25.36;28.82;97093.09;4981980;28;20028;-31
2021/03/04 04:01:27;;;;;;;2.38;1.90;;;;;;;25.35;28.83;97092.25;5001080;28;20676;-33
2021/03/04 04:03:56;;;;;;;3.42;2.10;;;;;;;25.35;29.02;97086.16;4983222;28;20516;-33
2021/03/04 04:06:21;;;;;;;2.05;1.85;;;;;;;25.35;28.83;97086.16;4975086;28;20113;-32
2021/03/04 04:08:46;;;;;;;2.25;1.77;;;;;;;25.35;28.92;97086.16;4977036;28;20038;-32
2021/03/04 04:11:12;;;;;;;2.63;1.75;;;;;;;25.36;28.96;97085.22;4966771;28;20424;-33
2021/03/04 04:13:37;;;;;;;6.85;3.90;;;;;;;25.34;28.72;97080.06;4986677;28;20022;-31
2021/03/04 04:16:03;;;;;;;6.00;3.17;;;;;;;25.31;28.72;97083.66;4986785;28;20029;-31
2021/03/04 04:18:28;;;;;;;3.78;2.25;;;;;;;25.31;28.95;97086.28;4978518;28;20037;-32
2021/03/04 04:20:54;;;;;;;3.05;2.13;;;;;;;25.30;29.11;97074.09;4981334;28;20036;-31
2021/03/04 04:23:19;;;;;;;2.40;2.15;;;;;;;25.29;28.82;97077.63;4945927;28;20034;-32
2021/03/04 04:25:49;;;;;;;3.75;2.20;;;;;;;25.29;28.88;97082.88;4965721;28;20609;-32
2021/03/04 04:28:15;;;;;;;3.67;1.70;;;;;;;25.29;28.94;97082.88;4997266;28;20087;-33
2021/03/04 04:30:41;;;;;;;3.15;1.92;;;;;;;25.30;29.05;97078.50;5001530;28;20289;-32
2021/03/04 04:33:06;;;;;;;7.50;1.90;;;;;;;25.28;29.12;97075.94;4996815;28;20038;-32
2021/03/04 04:35:31;;;;;;;2.55;1.92;;;;;;;25.28;29.01;97068.06;5004787;28;20037;-33
2021/03/04 04:37:59;;;;;;;2.90;1.90;;;;;;;25.29;29.17;97069.75;4985223;28;20366;-33
2021/03/04 04:40:25;;;;;;;2.00;1.77;;;;;;;25.29;29.06;97069.75;4992724;28;20034;-31
2021/03/04 04:42:50;;;;;;;3.08;1.92;;;;;;;25.29;29.10;97061.88;4993375;28;20057;-32
2021/03/04 04:45:15;;;;;;;3.80;2.10;;;;;;;25.29;28.97;97061.06;4994350;28;20025;-32
2021/03/04 04:47:41;;;;;;;3.45;1.98;;;;;;;25.30;29.14;97062.75;4997920;28;20441;-32
2021/03/04 04:50:06;;;;;;;9.88;2.20;;;;;;;25.29;29.11;97056.63;4998175;28;20084;-32
2021/03/04 04:52:32;;;;;;;4.65;1.88;;;;;;;25.28;28.89;97054.94;5001640;28;20037;-32
2021/03/04 04:54:57;;;;;;;8.35;2.13;;;;;;;25.29;29.11;97056.63;5005314;28;20044;-33
2021/03/04 04:57:22;;;;;;;2.88;2.20;;;;;;;25.28;28.96;97049.69;5002728;28;20585;-34
2021/03/04 04:59:49;;;;;;;3.75;2.10;;;;;;;25.30;29.15;97044.38;4996436;28;20518;-32
2021/03/04 05:02:14;;;;;;;2.53;1.75;;;;;;;25.28;28.93;97041.84;4998331;28;20049;-32
2021/03/04 05:04:42;;;;;;;2.38;1.80;;;;;;;25.29;28.99;97040.91;5001619;28;20452;-33
2021/03/04 05:07:08;;;;;;;2.90;1.90;;;;;;;25.29;29.06;97034.81;4999540;28;20121;-33
2021/03/04 05:09:33;;;;;;;3.28;1.70;;;;;;;25.28;29.16;97028.72;5001812;28;20040;-33
2021/03/04 05:11:59;;;;;;;2.33;1.60;;;;;;;25.29;28.98;97034.81;5001488;28;20744;-32
2021/03/04 05:14:24;;;;;;;4.57;1.90;;;;;;;25.27;29.02;97029.66;5000209;28;20646;-33
2021/03/04 05:16:49;;;;;;;3.10;1.92;;;;;;;25.28;29.03;97033.97;4997598;28;20042;-33
2021/03/04 05:19:15;;;;;;;2.63;1.90;;;;;;;25.28;29.01;97031.34;5001800;28;20049;-32
2021/03/04 05:21:40;;;;;;;1.90;1.42;;;;;;;25.28;29.18;97033.13;4992052;28;20213;-35
2021/03/04 05:24:06;;;;;;;4.57;1.73;;;;;;;25.28;28.97;97022.63;5002267;28;20036;-34
2021/03/04 05:26:31;;;;;;;3.53;1.80;;;;;;;25.25;28.92;97020.97;4998523;28;20064;-35
2021/03/04 05:28:57;;;;;;;4.38;1.77;;;;;;;25.28;28.95;97020.03;4981487;28;20034;-33
2021/03/04 05:31:22;;;;;;;2.15;1.60;;;;;;;25.27;29.12;97021.78;5001519;28;20041;-32
2021/03/04 05:33:47;;;;;;;2.97;1.65;;;;;;;25.27;29.13;97013.03;4994231;28;20029;-33
2021/03/04 05:36:13;;;;;;;2.45;1.60;;;;;;;25.26;29.17;97009.59;5003150;28;20052;-32
2021/03/04 05:38:38;;;;;;;3.15;1.80;;;;;;;25.27;28.96;97016.53;5007412;28;20038;-32
2021/03/04 05:41:04;;;;;;;2.58;1.50;;;;;;;25.27;29.00;97006.03;5004656;28;20037;-32
2021/03/04 05:43:29;;;;;;;2.45;1.70;;;;;;;25.26;28.87;96999.09;4965613;28;20088;-30
2021/03/04 05:45:55;;;;;;;2.50;1.70;;;;;;;25.27;29.21;97000.78;4997542;28;20045;-33
2021/03/04 05:48:21;;;;;;;2.08;1.67;;;;;;;25.26;28.88;97004.34;4968844;28;20399;-34
2021/03/04 05:50:51;;;;;;;2.17;1.10;;;;;;;25.27;29.00;96999.94;4980937;28;20032;-35
2021/03/04 05:53:18;;;;;;;2.28;1.77;;;;;;;25.26;29.16;97004.34;5007609;28;20029;-31
2021/03/04 05:55:44;;;;;;;1.52;1.35;;;;;;;25.27;29.10;97008.66;4986555;28;20033;-34
2021/03/04 05:58:10;;;;;;;2.50;1.60;;;;;;;25.26;29.08;96999.09;4996947;28;20034;-35
2021/03/04 06:00:36;;;;;;;2.10;1.70;;;;;;;25.24;29.07;96993.06;4996323;28;20115;-33
2021/03/04 06:03:01;;;;;;;2.88;1.70;;;;;;;25.26;29.09;96998.25;4981625;28;20509;-33
2021/03/04 06:05:26;;;;;;;2.72;1.60;;;;;;;25.25;29.16;96997.38;4985270;28;20021;-33
2021/03/04 06:07:52;;;;;;;2.50;1.70;;;;;;;25.26;29.06;96998.25;5005509;28;20417;-32
2021/03/04 06:10:17;;;;;;;4.82;1.67;;;;;;;25.25;29.11;96999.16;4999197;28;20040;-38
2021/03/04 06:12:43;;;;;;;2.15;1.23;;;;;;;25.25;29.00;96989.50;5003378;28;20030;-35
2021/03/04 06:15:09;;;;;;;2.25;1.50;;;;;;;25.25;29.10;96989.50;5003869;28;20026;-32
2021/03/04 06:17:35;;;;;;;1.95;1.63;;;;;;;25.25;29.13;96997.38;4998396;28;20088;-33
2021/03/04 06:20:02;;;;;;;2.47;1.70;;;;;;;25.25;28.98;97002.63;4997196;28;20487;-39
2021/03/04 06:22:29;;;;;;;2.35;1.50;;;;;;;25.25;29.13;96996.56;5004903;28;20519;-32
2021/03/04 06:24:55;;;;;;;1.90;1.45;;;;;;;25.23;29.12;96994.00;5003354;28;20114;-32
2021/03/04 06:27:25;;;;;;;2.47;1.60;;;;;;;25.24;29.13;96993.06;4984152;28;20553;-34
2021/03/04 06:29:52;;;;;;;1.98;1.50;;;;;;;25.24;29.26;96995.69;5002495;28;20605;-33
2021/03/04 06:32:22;;;;;;;2.55;1.55;;;;;;;25.23;28.99;96990.50;4986356;28;20390;-33
2021/03/04 06:34:47;;;;;;;1.95;1.50;;;;;;;25.24;29.15;96995.69;4979540;28;20092;-37
2021/03/04 06:37:13;;;;;;;2.15;1.52;;;;;;;25.24;29.14;96994.84;5001464;28;20038;-34
2021/03/04 06:39:42;;;;;;;5.40;1.55;;;;;;;25.23;29.10;96986.13;5001042;28;20030;-33
2021/03/04 06:42:08;;;;;;;2.30;1.50;;;;;;;25.23;28.91;96986.13;4996796;28;20375;-36
2021/03/04 06:44:47;;;;;;;2.35;1.70;;;;;;;25.22;29.10;96997.53;4978064;28;20117;-32
2021/03/04 06:47:33;;;;;;;2.35;1.65;;;;;;;25.22;28.94;97002.78;5005451;28;20042;-33
2021/03/04 06:49:58;;;;;;;1.35;1.23;;;;;;;25.22;29.00;96996.69;4996926;28;20202;-34
2021/03/04 06:52:26;;;;;;;1.90;1.30;;;;;;;25.22;28.97;96997.53;5001786;28;20041;-33
2021/03/04 06:54:53;;;;;;;2.97;1.60;;;;;;;25.21;29.00;96995.84;5003145;28;20033;-32
2021/03/04 06:57:19;;;;;;;2.95;1.70;;;;;;;25.20;29.02;96988.88;4983808;28;20405;-31
2021/03/04 06:59:44;;;;;;;2.10;1.60;;;;;;;25.20;29.11;96988.88;5002566;28;20656;-33
2021/03/04 07:02:10;;;;;;;1.50;1.40;;;;;;;25.20;29.01;96994.13;4997090;28;20038;-34
2021/03/04 07:04:36;;;;;;;2.42;1.60;;;;;;;25.20;28.99;96988.88;5003588;28;20029;-32
2021/03/04 07:07:01;;;;;;;6.65;1.90;;;;;;;25.21;29.17;96987.13;5006729;28;20448;-33
2021/03/04 07:09:32;;;;;;;2.97;1.50;;;;;;;25.20;29.05;96994.13;4984284;28;20076;-31
2021/03/04 07:11:58;;;;;;;3.08;1.40;;;;;;;25.20;29.14;96988.88;4983835;28;20038;-33
2021/03/04 07:14:23;;;;;;;2.30;1.60;;;;;;;25.20;28.91;96986.25;4961559;28;20053;-31
2021/03/04 07:16:48;;;;;;;2.35;1.50;;;;;;;25.20;29.14;96988.06;4978757;28;20092;-31
2021/03/04 07:19:15;;;;;;;2.25;1.70;;;;;;;25.19;29.11;96992.44;4982056;28;20030;-33
2021/03/04 07:21:47;;;;;;;2.08;1.40;;;;;;;25.19;29.02;96987.19;4976691;28;20034;-33
2021/03/04 07:24:13;;;;;;;1.92;1.52;;;;;;;25.19;28.96;96984.56;4986889;28;20330;-32
2021/03/04 07:26:38;;;;;;;2.30;1.35;;;;;;;25.20;29.10;96988.88;4966427;28;20022;-33
2021/03/04 07:29:05;;;;;;;3.17;1.40;;;;;;;25.20;28.99;96978.41;5002359;28;20950;-33
2021/03/04 07:31:30;;;;;;;1.88;1.52;;;;;;;25.18;29.16;96972.38;5001119;28;20040;-33
2021/03/04 07:33:56;;;;;;;2.58;1.83;;;;;;;25.17;28.95;96968.91;4998209;28;20482;-32
2021/03/04 07:36:24;;;;;;;2.92;1.65;;;;;;;25.18;29.07;96969.75;4947958;28;20049;-30
2021/03/04 07:38:57;;;;;;;6.75;2.00;;;;;;;25.17;29.09;96973.31;5000312;28;20037;-35
2021/03/04 07:41:22;;;;;;;9.73;2.13;;;;;;;25.17;28.93;96968.91;4995405;28;20034;-32
2021/03/04 07:43:54;;;;;;;6.45;2.47;;;;;;;25.17;28.66;96968.06;4992562;28;20745;-31
2021/03/04 07:46:38;;;;;;;11.40;2.35;;;;;;;25.17;28.94;96966.28;4981191;28;20038;-33
2021/03/04 07:49:08;;;;;;;4.72;1.75;;;;;;;25.18;29.15;96959.28;4989329;28;20059;-32
2021/03/04 07:51:44;;;;;;;5.78;2.10;;;;;;;25.18;29.09;96969.75;4993918;28;20048;-33
2021/03/04 07:54:09;;;;;;;3.15;1.90;;;;;;;25.18;29.09;96964.53;4979737;28;20482;-35
2021/03/04 07:56:35;;;;;;;5.68;2.20;;;;;;;25.19;29.03;96960.97;4978657;28;20028;-33
2021/03/04 07:59:25;;;;;;;8.23;2.22;;;;;;;25.20;29.46;96952.16;4980692;28;20030;-33
2021/03/04 08:02:01;;;;;;;4.65;1.95;;;;;;;25.21;29.29;96948.66;4978742;28;20048;-31
2021/03/04 08:04:27;;;;;;;4.57;1.90;;;;;;;25.22;29.12;96950.34;4992904;28;20030;-34
2021/03/04 08:06:53;;;;;;;4.20;1.75;;;;;;;25.22;29.55;96942.47;4994647;28;20399;-34
2021/03/04 08:09:29;;;;;;;2.75;1.63;;;;;;;25.22;29.57;96945.09;4974188;28;20093;-32
2021/03/04 08:12:10;;;;;;;5.18;1.60;;;;;;;25.24;29.53;96942.41;4992985;28;20580;-33
2021/03/04 08:14:36;;;;;;;;;;;;;;;25.24;29.56;96937.97;4974885;28;20037;-33
2021/03/04 08:17:03;;;;;;;2.05;1.25;;;;;;;25.26;29.56;96940.53;4978593;28;19921;-32
2021/03/04 08:19:29;;;;;;;3.55;1.65;;;;;;;25.26;29.65;96937.91;4994017;28;20021;-32
2021/03/04 08:22:02;;;;;;;5.05;1.70;;;;;;;25.26;29.88;96936.16;4996049;28;20049;-32
2021/03/04 08:24:28;;;;;;;2.97;1.60;;;;;;;25.27;29.68;96931.75;4995811;28;20108;-32
2021/03/04 08:26:56;;;;;;;3.80;1.58;;;;;;;25.27;29.95;96937.84;4993550;28;20462;-33
2021/03/04 08:29:21;;;;;;;2.47;1.60;;;;;;;25.29;30.08;96932.53;4993850;28;20030;-32
2021/03/04 08:31:50;;;;;;;4.32;1.60;;;;;;;25.29;30.00;96928.13;4974105;28;20564;-35
2021/03/04 08:34:16;;;;;;;8.70;1.63;;;;;;;25.31;30.05;96928.91;4987601;28;20033;-34
2021/03/04 08:36:44;;;;;;;2.13;1.48;;;;;;;25.31;30.01;96928.91;4976340;28;20026;-30
2021/03/04 08:39:10;;;;;;;3.80;1.63;;;;;;;25.33;30.04;96931.47;4975449;28;20026;-34
2021/03/04 08:41:35;;;;;;;3.33;1.92;;;;;;;25.35;30.09;96924.34;4990346;28;20528;-33
2021/03/04 08:44:25;;;;;;;1.75;1.35;;;;;;;25.36;30.06;96922.59;4993203;28;20568;-33
2021/03/04 08:46:51;;;;;;;2.58;1.55;;;;;;;25.37;30.09;96924.28;4991374;28;20097;-33
2021/03/04 08:49:20;;;;;;;3.42;1.30;;;;;;;25.38;30.15;96912.84;4971311;28;20030;-32
2021/03/04 08:51:45;;;;;;;8.35;1.38;;;;;;;25.40;30.18;96921.50;4971370;28;20044;-32
2021/03/04 08:54:27;;;;;;;2.88;1.48;;;;;;;25.40;30.13;96908.41;4962969;28;20553;-35
2021/03/04 08:56:56;;;;;;;2.70;1.48;;;;;;;25.41;30.18;96912.72;4991105;28;20034;-34
2021/03/04 08:59:30;;;;;;;4.00;1.75;;;;;;;25.41;30.25;96910.09;4990697;28;20045;-34
2021/03/04 09:01:57;;;;;;;2.85;1.40;;;;;;;25.42;30.10;96906.53;4990049;28;20137;-32
2021/03/04 09:04:24;;;;;;;2.00;1.33;;;;;;;25.42;30.25;96903.91;4994048;28;20022;-32
2021/03/04 09:06:49;;;;;;;2.45;1.33;;;;;;;25.42;30.31;96899.53;4976018;28;20076;-33
2021/03/04 09:09:27;;;;;;;2.67;1.52;;;;;;;25.43;30.19;96895.09;4977285;28;20025;-35
2021/03/04 09:11:53;;;;;;;2.70;1.40;;;;;;;25.44;30.17;96892.41;4998472;28;20100;-33
2021/03/04 09:14:24;;;;;;;2.58;1.20;;;;;;;25.45;30.29;96898.50;4982402;28;20478;-33
2021/03/04 09:16:50;;;;;;;2.45;1.40;;;;;;;25.46;30.09;96900.22;4994981;28;20071;-35
2021/03/04 09:19:29;;;;;;;2.20;1.20;;;;;;;25.47;30.39;96894.03;4996502;28;20045;-32
2021/03/04 09:21:55;;;;;;;2.78;1.73;;;;;;;25.48;30.19;96887.00;4995373;28;20022;-33
2021/03/04 09:24:21;;;;;;;1.73;1.30;;;;;;;25.49;30.41;96886.09;4975176;28;20022;-33
2021/03/04 09:26:46;;;;;;;2.15;1.30;;;;;;;25.50;30.30;96880.75;4976962;28;20028;-32
2021/03/04 09:29:12;;;;;;;6.07;1.60;;;;;;;25.51;30.32;96882.44;4995430;28;20022;-34
2021/03/04 09:31:48;;;;;;;2.53;1.35;;;;;;;25.52;30.25;96884.13;4963449;28;20038;-35
2021/03/04 09:34:13;;;;;;;2.95;1.50;;;;;;;25.53;30.26;96880.63;4992523;28;20479;-31
2021/03/04 09:36:39;;;;;;;6.90;1.90;;;;;;;25.54;30.36;96871.81;4993599;28;20025;-31
2021/03/04 09:39:04;;;;;;;45.47;6.45;;;;;;;25.51;24.57;96871.97;5002366;28;20113;-33
2021/03/04 09:41:29;;;;;;;27.50;7.40;;;;;;;25.42;22.18;96867.19;4985550;28;20601;-35
2021/03/04 09:44:05;;;;;;;23.95;6.57;;;;;;;25.28;21.85;96858.22;5002020;28;20041;-34
2021/03/04 09:46:35;;;;;;;13.60;6.97;;;;;;;25.18;22.13;96864.88;5000491;28;20176;-33
2021/03/04 09:49:21;;;;;;;18.70;5.97;;;;;;;25.10;22.33;96853.91;4994984;28;20033;-32
2021/03/04 09:51:46;;;;;;;9.55;5.40;;;;;;;25.05;23.15;96857.59;4997959;28;20070;-32
2021/03/04 09:54:23;;;;;;;12.98;5.68;;;;;;;25.02;23.88;96849.88;4998711;28;20048;-32
2021/03/04 09:57:00;;;;;;;9.48;5.03;;;;;;;25.03;24.56;96848.13;4997119;28;20081;-34
2021/03/04 09:59:26;;;;;;;8.57;4.43;;;;;;;25.02;24.82;96844.63;4993595;28;20036;-32
2021/03/04 10:01:51;;;;;;;13.32;4.75;;;;;;;25.03;25.13;96843.72;4994051;28;20037;-32
2021/03/04 10:04:16;;;;;;;9.65;4.40;;;;;;;25.04;25.19;96842.78;4962555;28;20422;-29
2021/03/04 10:06:42;;;;;;;9.75;4.13;;;;;;;25.05;25.52;96839.25;4982045;28;20033;-34
2021/03/04 10:09:07;;;;;;;15.55;4.63;;;;;;;25.08;25.33;96835.63;5002704;28;20041;-32
2021/03/04 10:11:36;;;;;;;12.77;3.72;;;;;;;25.11;25.44;96837.22;4999908;28;20366;-32
2021/03/04 10:14:08;;;;;;;13.60;3.70;;;;;;;25.12;25.68;96837.16;4998507;28;20138;-33
2021/03/04 10:16:33;;;;;;;17.88;4.10;;;;;;;25.14;25.86;96837.94;4995923;28;20038;-40
2021/03/04 10:19:00;;;;;;;9.73;3.95;;;;;;;25.14;24.96;96837.09;4982562;28;20060;-32
2021/03/04 10:21:26;;;;;;;8.38;3.78;;;;;;;25.16;25.12;96840.47;5006363;28;20076;-33
2021/03/04 10:23:51;;;;;;;10.00;3.97;;;;;;;25.15;25.40;96830.91;5008717;28;20026;-32
2021/03/04 10:26:16;;;;;;;10.52;3.55;;;;;;;25.16;25.79;96835.22;5007813;28;20033;-34
2021/03/04 10:28:42;;;;;;;7.80;3.20;;;;;;;25.17;25.78;96831.72;4997343;28;20123;-33
2021/03/04 10:31:07;;;;;;;10.23;3.17;;;;;;;25.16;25.90;96835.22;5000407;28;20394;-32
2021/03/04 10:33:33;;;;;;;10.00;3.38;;;;;;;25.18;26.01;96836.00;4998896;28;20099;-31
2021/03/04 10:35:58;;;;;;;17.58;3.88;;;;;;;25.17;26.40;96822.03;4998177;28;20085;-32
2021/03/04 10:38:23;;;;;;;8.23;2.95;;;;;;;25.17;26.34;96832.53;5004172;28;20033;-33
2021/03/04 10:40:51;;;;;;;9.35;3.20;;;;;;;25.19;26.37;96824.59;5004538;28;20053;-32
2021/03/04 10:43:17;;;;;;;11.18;3.60;;;;;;;25.20;27.18;96823.66;5002790;28;20037;-33
2021/03/04 10:45:42;;;;;;;8.90;3.30;;;;;;;25.23;27.21;96826.13;5001370;28;20038;-33
2021/03/04 10:48:08;;;;;;;11.70;3.20;;;;;;;25.23;27.18;96822.66;5006471;28;20026;-33
2021/03/04 10:50:34;;;;;;;9.32;3.17;;;;;;;25.24;27.22;96825.22;4999755;28;20029;-34
2021/03/04 10:52:59;;;;;;;16.48;3.35;;;;;;;25.26;27.43;96822.50;5004158;28;20041;-33
2021/03/04 10:55:25;;;;;;;7.88;3.42;;;;;;;25.28;27.57;96818.88;5008245;28;20029;-34
2021/03/04 10:57:50;;;;;;;7.55;2.85;;;;;;;25.30;27.40;96819.66;5007303;28;20037;-35
2021/03/04 11:00:16;;;;;;;10.40;3.30;;;;;;;25.31;27.68;96815.25;5003553;28;20027;-35
2021/03/04 11:02:41;;;;;;;14.23;3.03;;;;;;;25.33;27.61;96813.41;5004372;28;20036;-34
2021/03/04 11:05:07;;;;;;;8.73;3.55;;;;;;;25.35;27.75;96814.16;5004870;28;20053;-34
2021/03/04 11:07:33;;;;;;;9.73;3.03;;;;;;;25.38;27.59;96813.16;4997737;28;20029;-32
2021/03/04 11:09:59;;;;;;;4.40;2.80;;;;;;;25.39;27.76;96812.22;5006925;28;20029;-33
2021/03/04 11:12:24;;;;;;;7.28;2.70;;;;;;;25.41;27.96;96815.63;5004813;28;20025;-33
2021/03/04 11:14:50;;;;;;;6.85;2.85;;;;;;;25.42;28.06;96801.59;4990950;28;20021;-32
2021/03/04 11:17:15;;;;;;;5.50;2.92;;;;;;;25.42;27.97;96801.59;5003586;28;20120;-33
2021/03/04 11:19:44;;;;;;;7.63;2.85;;;;;;;25.45;28.08;96810.13;5000217;28;20017;-35
2021/03/04 11:22:09;;;;;;;5.55;2.80;;;;;;;25.46;28.15;96805.75;5006227;28;20437;-35
2021/03/04 11:24:35;;;;;;;8.13;2.90;;;;;;;25.49;28.15;96800.34;5007555;28;20033;-33
2021/03/04 11:27:00;;;;;;;5.90;2.88;;;;;;;25.49;28.28;96795.13;4981288;28;20088;-32
2021/03/04 11:29:26;;;;;;;11.18;2.80;;;;;;;25.51;28.10;96790.63;4985360;28;20514;-32
2021/03/04 11:31:52;;;;;;;4.65;2.60;;;;;;;25.51;28.17;96784.53;4999554;28;20030;-33
2021/03/04 11:34:19;;;;;;;4.43;2.58;;;;;;;25.53;28.26;96786.16;5003761;28;20051;-34